KDCA

Ronald Reagan Washington National Airport

Washington, Virginia, USA
METAR KDCA 162211Z 32011KT 10SM BKN014 BKN019 OVC025 07/04 A2989 RMK AO2 T00670039
Observed Flight Rules
Dec-16 @ 22:11 UTC (46 minutes ago) Marginal Visual Flight Rules
Wind Visibility Clouds
320° at 11 knots 10 miles
  • Broken at 1,400' AGL
  • Broken at 1,900' AGL
  • Overcast at 2,500' AGL
Temperatures Readings
Current 7°C / 45°F
Dewpoint 4°C / 39°F
Humidity 81%
Altimeter 29.89" Hg
Pressure 1012 hPa
Elevation 18
METAR KDCA 162211Z 32011KT 10SM BKN014 BKN019 OVC025 07/04 A2989 RMK AO2 T00670039
Observed Flight Rules
Dec-16 @ 22:11 UTC
(46 minutes ago)
MVFR
Wind Visibility
320° at 11 knots 10 miles
Clouds
  • Broken at 1,400' AGL
  • Broken at 1,900' AGL
  • Overcast at 2,500' AGL
Temperature Dewpoint
7°C / 45°F 4°C / 39°F
Humidity Altimeter Pressure
81% 29.89" Hg 1012 hPa